Lida, Nevada
Current Conditions -  °F | °C
As of 12:56 AM on Sunday 26 Oct 2014 (Local Time) from KTPH Reporting Station
Clear Clear  
Wind Chill: 35°   Ceiling: Unl
Heat Index: 41°   Visibility: 10mi
Dew Point: 18°   Wind: 10mph
Humidity: 40%   Direction: 360°N
Pressure: 30.05"   Gusts: NA
Location:  37.7558°N, 117.435°W
Report Text: KTPH 260756Z AUTO 36009KT 10SM CLR 05/M08 A3005 RMK AO2 SLP132 T00501078 402280044
Loading
Personal Weather Stations






























Interactive Weather Map
Tropical Storm Tracking
New forecast layout! Learn more

10-Day Weather Forecast

Advertisements
Track Severe Weather on mobile